Time;durP1;ratioP1;P1;durP2;ratioP2;P2;SDS_P1;SDS_P2;PMS_P1;PMS_P2;Temp;Humidity;BMP_temperature;BMP_pressure;BME280_temperature;BME280_humidity;BME280_pressure;Samples;Min_cycle;Max_cycle;Signal;HPM_P1;HPM_P2
2022/01/19 00:00:11;;;;;;;8.10;4.33;;;;;;;-3.23;73.26;97112.52;1676990;86;21109;-68
2022/01/19 00:02:40;;;;;;;11.77;4.67;;;;;;;-3.28;73.21;97115.75;1676911;86;21078;-68
2022/01/19 00:05:09;;;;;;;10.40;4.63;;;;;;;-3.28;73.73;97112.25;1676973;86;21113;-68
2022/01/19 00:07:36;;;;;;;7.40;3.40;;;;;;;-3.20;73.80;97116.19;1676882;85;21125;-69
2022/01/19 00:10:09;;;;;;;11.90;4.50;;;;;;;-3.12;73.54;97120.52;1676683;86;21050;-68
2022/01/19 00:12:35;;;;;;;8.77;4.57;;;;;;;-3.11;73.51;97133.90;1676903;86;21137;-68
2022/01/19 00:15:02;;;;;;;7.17;3.00;;;;;;;-3.08;73.42;97123.33;1677027;86;20990;-68
2022/01/19 00:17:29;;;;;;;7.97;4.07;;;;;;;-3.12;73.49;97121.40;1676710;86;21011;-68
2022/01/19 00:19:55;;;;;;;8.90;4.13;;;;;;;-3.21;73.46;97115.69;1676998;86;21041;-68
2022/01/19 00:22:21;;;;;;;5.73;3.13;;;;;;;-3.26;73.48;97119.28;1677076;86;21042;-68
2022/01/19 00:24:48;;;;;;;10.47;4.80;;;;;;;-3.33;73.68;97136.89;1677006;86;21058;-68
2022/01/19 00:27:14;;;;;;;8.77;4.77;;;;;;;-3.35;73.69;97132.03;1677031;85;21406;-68
2022/01/19 00:29:41;;;;;;;7.17;4.47;;;;;;;-3.41;73.56;97135.16;1677094;86;21050;-68
2022/01/19 00:32:07;;;;;;;7.77;4.50;;;;;;;-3.43;73.90;97130.70;1676831;86;21157;-68
2022/01/19 00:34:34;;;;;;;9.47;4.70;;;;;;;-3.39;74.12;97148.16;1677261;86;21006;-68
2022/01/19 00:37:00;;;;;;;10.90;4.47;;;;;;;-3.40;74.05;97149.86;1676757;86;21093;-68
2022/01/19 00:39:31;;;;;;;8.53;4.90;;;;;;;-3.40;74.77;97151.15;1676992;85;21012;-68
2022/01/19 00:41:56;;;;;;;14.80;5.13;;;;;;;-3.37;74.66;97158.19;1676832;86;21078;-68
2022/01/19 00:44:23;;;;;;;13.10;5.00;;;;;;;-3.36;74.59;97155.67;1694350;84;21079;-69
2022/01/19 00:46:49;;;;;;;11.07;5.33;;;;;;;-3.37;74.30;97158.19;1694519;85;21084;-68
2022/01/19 00:49:16;;;;;;;10.17;4.90;;;;;;;-3.41;74.59;97160.08;1694513;85;21097;-68
2022/01/19 00:51:42;;;;;;;7.53;4.57;;;;;;;-3.46;74.16;97155.92;1694276;85;21543;-68
2022/01/19 00:54:09;;;;;;;11.87;5.20;;;;;;;-3.54;74.19;97152.88;1694518;84;21065;-68
2022/01/19 00:56:36;;;;;;;9.90;4.70;;;;;;;-3.57;74.25;97153.11;1694480;85;21080;-68
2022/01/19 00:59:03;;;;;;;11.17;5.43;;;;;;;-3.72;73.81;97151.37;1699476;84;21036;-68
2022/01/19 01:01:29;;;;;;;11.87;4.90;;;;;;;-3.88;73.64;97154.19;1701030;84;21033;-68
2022/01/19 01:03:55;;;;;;;10.07;4.70;;;;;;;-3.98;73.89;97155.30;1701003;84;21510;-68
2022/01/19 01:06:22;;;;;;;7.03;4.20;;;;;;;-4.06;74.03;97155.23;1700952;84;21037;-68
2022/01/19 01:08:48;;;;;;;10.57;5.20;;;;;;;-4.24;73.87;97158.44;1700670;84;21025;-68
2022/01/19 01:11:17;;;;;;;8.70;4.93;;;;;;;-4.34;73.97;97157.36;1701127;84;21083;-68
2022/01/19 01:16:34;;;;;;;12.60;4.53;;;;;;;-4.53;74.43;97153.14;1700902;84;21044;-68
2022/01/19 01:19:01;;;;;;;10.43;4.60;;;;;;;-4.77;74.34;97152.03;1673173;84;21593;-68
2022/01/19 01:21:29;;;;;;;9.73;4.00;;;;;;;-4.93;74.50;97157.87;1700971;84;21466;-68
2022/01/19 01:23:55;;;;;;;9.17;4.33;;;;;;;-5.01;75.49;97161.23;1700494;84;21088;-68
2022/01/19 01:26:22;;;;;;;8.27;4.67;;;;;;;-5.02;75.70;97158.54;1700870;84;21037;-68
2022/01/19 01:28:49;;;;;;;8.97;4.40;;;;;;;-5.04;75.78;97158.83;1700621;84;21013;-68
2022/01/19 01:31:16;;;;;;;9.00;4.87;;;;;;;-5.05;75.67;97154.08;1700905;84;21558;-68
2022/01/19 01:33:43;;;;;;;17.83;4.50;;;;;;;-5.07;75.59;97141.91;1700874;84;21080;-68
2022/01/19 01:36:12;;;;;;;7.50;3.43;;;;;;;-5.08;75.65;97137.56;1700888;84;21004;-68
2022/01/19 01:38:39;;;;;;;14.77;5.70;;;;;;;-5.13;75.63;97140.23;1700864;84;21551;-68
2022/01/19 01:41:12;;;;;;;10.63;4.67;;;;;;;-5.15;75.73;97139.23;1700802;84;21510;-68
2022/01/19 01:43:40;;;;;;;9.60;4.37;;;;;;;-5.10;75.82;97138.73;1701009;84;21566;-68
2022/01/19 01:46:21;;;;;;;4.00;2.10;;;;;;;-5.06;75.99;97134.70;1701127;84;21459;-68
2022/01/19 01:48:45;;;;;;;10.18;5.15;;;;;;;-5.13;75.86;97132.11;1699881;84;21045;-68
2022/01/19 01:53:59;;;;;;;6.30;4.07;;;;;;;-5.31;75.88;97139.90;1700911;84;21012;-67
2022/01/19 01:56:26;;;;;;;8.80;4.00;;;;;;;-5.34;76.22;97141.88;1700687;84;21147;-67
2022/01/19 01:58:55;;;;;;;9.17;4.20;;;;;;;-5.37;75.91;97140.36;1698275;84;21127;-68
2022/01/19 02:01:31;;;;;;;9.17;3.97;;;;;;;-5.43;75.99;97142.53;1700919;84;21518;-67
2022/01/19 02:03:59;;;;;;;8.37;4.03;;;;;;;-5.53;76.08;97142.30;1700859;84;21021;-68
2022/01/19 02:06:33;;;;;;;10.60;4.43;;;;;;;-5.53;76.27;97141.41;1701003;84;21517;-68
2022/01/19 02:09:07;;;;;;;;;;;;;;;-5.55;76.23;97136.16;1700480;84;21100;-68
2022/01/19 02:23:16;;;;;;;11.83;3.63;;;;;;;-6.00;76.52;97124.94;1701061;84;20988;-68
2022/01/19 02:25:41;;;;;;;10.43;3.93;;;;;;;-6.03;76.46;97131.16;1699928;84;21044;-68
2022/01/19 02:41:43;;;;;;;6.87;2.93;;;;;;;-6.90;75.87;97140.88;1700648;84;21085;-68
2022/01/19 02:44:15;;;;;;;9.60;3.40;;;;;;;-6.96;76.34;97143.86;1701058;84;21049;-68
2022/01/19 02:49:19;;;;;;;6.53;3.70;;;;;;;-7.01;76.67;97133.65;1701017;84;21527;-68
2022/01/19 02:51:50;;;;;;;7.47;3.77;;;;;;;-7.03;76.46;97131.39;1700970;84;21105;-68
2022/01/19 02:54:24;;;;;;;9.20;3.90;;;;;;;-7.05;76.56;97134.63;1700975;84;21013;-68
2022/01/19 02:56:54;;;;;;;9.23;4.13;;;;;;;-7.04;76.58;97128.30;1701140;84;21603;-69
2022/01/19 02:59:32;;;;;;;8.20;3.67;;;;;;;-7.14;76.30;97131.38;1700635;84;21006;-68
2022/01/19 03:10:09;;;;;;;6.57;3.30;;;;;;;-7.66;76.67;97142.47;1700662;84;21063;-68
2022/01/19 03:12:36;;;;;;;8.90;3.60;;;;;;;-7.71;76.86;97142.52;1701320;84;20997;-68
2022/01/19 03:15:04;;;;;;;7.43;3.53;;;;;;;-7.67;77.23;97147.98;1701102;84;21128;-68
2022/01/19 03:17:31;;;;;;;8.20;3.77;;;;;;;-7.64;77.31;97146.94;1673515;84;21577;-68
2022/01/19 03:19:58;;;;;;;8.70;3.80;;;;;;;-7.64;77.28;97145.66;1700916;84;21029;-68
2022/01/19 03:22:31;;;;;;;2.37;1.43;;;;;;;-7.60;77.21;97144.23;1700852;84;21513;-68
2022/01/19 03:24:53;;;;;;;7.97;3.40;;;;;;;-7.62;77.17;97146.67;1700253;84;21049;-68
2022/01/19 03:27:20;;;;;;;10.53;4.60;;;;;;;-7.72;78.10;97140.34;1701090;84;21024;-68
2022/01/19 03:29:48;;;;;;;3.87;2.13;;;;;;;-7.78;77.53;97146.30;1700647;84;20997;-68
2022/01/19 03:32:15;;;;;;;7.00;3.80;;;;;;;-7.78;77.79;97135.16;1700741;84;21060;-68
2022/01/19 03:34:42;;;;;;;7.93;3.50;;;;;;;-7.86;77.45;97129.45;1700943;84;21017;-68
2022/01/19 03:37:11;;;;;;;10.57;4.63;;;;;;;-7.88;77.61;97133.17;1701075;84;21092;-68
2022/01/19 03:39:38;;;;;;;8.97;3.57;;;;;;;-7.83;78.63;97134.80;1700879;84;21037;-68
2022/01/19 03:42:06;;;;;;;7.03;3.70;;;;;;;-7.83;78.58;97134.80;1701132;84;21022;-68
2022/01/19 03:44:33;;;;;;;9.93;4.83;;;;;;;-7.96;78.04;97138.47;1700989;84;21029;-68
2022/01/19 03:47:02;;;;;;;6.77;3.63;;;;;;;-8.07;78.13;97137.26;1700731;84;21040;-69
2022/01/19 03:49:33;;;;;;;6.43;3.47;;;;;;;-8.17;78.30;97133.48;1701053;84;21001;-68
2022/01/19 03:52:03;;;;;;;10.67;3.80;;;;;;;-8.39;78.97;97129.67;1673306;84;21034;-68
2022/01/19 03:54:41;;;;;;;7.00;3.87;;;;;;;-8.38;79.03;97130.55;1701020;84;21077;-68
2022/01/19 03:57:08;;;;;;;7.63;3.13;;;;;;;-8.32;79.04;97126.78;1700967;84;21029;-68
2022/01/19 03:59:36;;;;;;;8.50;3.90;;;;;;;-8.36;79.22;97121.33;1700884;84;21135;-69
2022/01/19 04:02:05;;;;;;;7.60;3.63;;;;;;;-8.30;79.27;97113.72;1700553;84;21009;-68
2022/01/19 04:07:09;;;;;;;;;;;;;;;-8.24;79.22;97108.17;1685644;84;21558;-68
2022/01/19 04:09:40;;;;;;;7.10;3.73;;;;;;;-8.30;78.79;97117.95;1700831;84;20439;-68
2022/01/19 04:12:12;;;;;;;6.07;3.17;;;;;;;-8.31;79.15;97117.06;1701002;84;21044;-69
2022/01/19 04:14:39;;;;;;;6.63;2.90;;;;;;;-8.27;79.49;97116.52;1701183;84;21148;-68
2022/01/19 04:17:10;;;;;;;5.50;3.03;;;;;;;-8.32;78.45;97113.09;1700837;84;21017;-68
2022/01/19 04:22:20;;;;;;;7.27;2.60;;;;;;;-8.25;78.84;97102.56;1700216;84;21076;-68
2022/01/19 04:24:49;;;;;;;9.33;2.40;;;;;;;-8.46;78.07;97113.75;1682920;84;21033;-68
2022/01/19 04:29:55;;;;;;;5.70;2.17;;;;;;;-8.70;78.03;97105.91;1699393;84;21041;-68
2022/01/19 04:32:25;;;;;;;6.13;3.00;;;;;;;-8.70;78.31;97096.95;1699722;84;21550;-68
2022/01/19 04:34:49;;;;;;;3.50;1.97;;;;;;;-8.65;78.76;97101.16;1700544;84;21012;-67
2022/01/19 04:48:11;;;;;;;7.83;2.90;;;;;;;-8.84;79.17;97086.05;1701063;84;21101;-66
2022/01/19 05:04:21;;;;;;;8.50;3.60;;;;;;;-9.01;78.71;97076.63;1606105;89;21025;-66
2022/01/19 05:06:53;;;;;;;7.47;3.50;;;;;;;-9.02;79.30;97076.50;1664775;85;21021;-66
2022/01/19 05:09:39;;;;;;;6.27;2.80;;;;;;;-8.93;79.53;97072.13;1682755;85;21022;-65
2022/01/19 05:14:36;;;;;;;8.50;2.97;;;;;;;-8.92;78.82;97084.13;1683274;85;21041;-66
2022/01/19 05:17:03;;;;;;;4.60;2.60;;;;;;;-8.93;78.93;97075.96;1683119;85;21560;-66
2022/01/19 05:19:30;;;;;;;6.67;3.20;;;;;;;-8.95;78.92;97078.78;1682925;85;21037;-65
2022/01/19 05:21:57;;;;;;;7.13;3.27;;;;;;;-8.96;79.21;97077.00;1683155;85;21084;-66
2022/01/19 05:24:34;;;;;;;10.50;4.30;;;;;;;-8.91;79.20;97071.87;1673989;85;21106;-66
2022/01/19 05:27:13;;;;;;;6.70;3.70;;;;;;;-8.90;79.17;97074.03;1682381;85;21109;-66
2022/01/19 05:29:39;;;;;;;10.40;4.27;;;;;;;-8.98;78.67;97070.87;1683078;85;21527;-65
2022/01/19 05:32:07;;;;;;;8.03;3.57;;;;;;;-9.06;78.27;97069.38;1683021;85;21050;-67
2022/01/19 05:34:34;;;;;;;6.17;2.93;;;;;;;-9.09;78.74;97074.25;1683042;85;21483;-66
2022/01/19 05:37:03;;;;;;;12.27;4.30;;;;;;;-9.04;78.98;97077.68;1680949;85;21018;-66
2022/01/19 05:39:45;;;;;;;5.17;3.33;;;;;;;-9.03;78.78;97073.45;1682800;85;21045;-66
2022/01/19 05:42:15;;;;;;;8.23;2.90;;;;;;;-9.00;78.96;97077.52;1682063;85;21006;-66
2022/01/19 05:44:45;;;;;;;4.90;2.10;;;;;;;-8.97;78.85;97077.76;1683061;85;21034;-66
2022/01/19 05:47:14;;;;;;;19.90;5.97;;;;;;;-9.11;77.67;97080.52;1682903;85;21057;-66
2022/01/19 05:49:43;;;;;;;6.40;2.90;;;;;;;-9.26;77.75;97080.17;1677801;84;21115;-66
2022/01/19 05:52:10;;;;;;;7.40;2.43;;;;;;;-9.28;78.16;97082.98;1703895;84;21052;-66
2022/01/19 05:54:37;;;;;;;7.20;2.90;;;;;;;-9.34;78.15;97089.28;1703713;84;21482;-66
2022/01/19 05:57:05;;;;;;;7.50;2.73;;;;;;;-9.34;78.63;97083.78;1703331;84;21001;-66
2022/01/19 05:59:34;;;;;;;9.33;2.50;;;;;;;-9.39;78.40;97088.52;1703351;84;21053;-65
2022/01/19 06:02:01;;;;;;;6.10;2.10;;;;;;;-9.37;78.57;97091.20;1696131;84;21045;-66
2022/01/19 06:04:28;;;;;;;5.07;2.40;;;;;;;-9.36;78.79;97094.26;1695401;85;21519;-65
2022/01/19 06:07:12;;;;;;;5.33;2.15;;;;;;;-9.31;78.76;97101.91;1694037;85;21013;-67
2022/01/19 06:10:08;;;;;;;3.73;2.50;;;;;;;-9.52;78.05;97092.13;1694386;85;21087;-66
2022/01/19 06:12:37;;;;;;;4.37;2.40;;;;;;;-9.51;78.44;97091.34;1694017;85;21195;-64
2022/01/19 06:15:06;;;;;;;4.53;2.60;;;;;;;-9.39;78.80;97095.30;1695752;85;21109;-67
2022/01/19 06:17:33;;;;;;;7.77;3.63;;;;;;;-9.32;78.78;97091.55;1695659;85;21080;-65
2022/01/19 06:20:00;;;;;;;5.20;2.90;;;;;;;-9.39;77.73;97094.02;1694047;85;21084;-65
2022/01/19 06:22:27;;;;;;;4.23;2.43;;;;;;;-9.51;77.74;97105.40;1695742;85;21072;-65
2022/01/19 06:24:56;;;;;;;8.27;3.33;;;;;;;-9.66;77.29;97106.31;1695143;85;21037;-63
2022/01/19 06:27:23;;;;;;;9.67;2.80;;;;;;;-9.69;77.71;97104.78;1695967;85;21531;-66
2022/01/19 06:29:49;;;;;;;11.40;6.37;;;;;;;-9.78;77.83;97104.41;1695792;84;21029;-64
2022/01/19 06:32:16;;;;;;;6.43;3.13;;;;;;;-9.78;78.00;97099.30;1696043;85;21040;-65
2022/01/19 06:34:44;;;;;;;4.20;2.00;;;;;;;-9.66;78.46;97101.59;1696324;84;21017;-63
2022/01/19 06:37:12;;;;;;;7.60;2.17;;;;;;;-9.64;77.89;97098.78;1688110;85;21049;-64
2022/01/19 06:39:41;;;;;;;9.20;2.47;;;;;;;-9.73;77.58;97098.02;1695756;85;21017;-64
2022/01/19 06:42:09;;;;;;;6.20;2.70;;;;;;;-9.68;78.21;97102.73;1694573;85;21574;-66
2022/01/19 06:44:36;;;;;;;4.97;1.90;;;;;;;-9.53;78.30;97098.38;1694832;85;21064;-68
2022/01/19 06:47:04;;;;;;;6.57;2.50;;;;;;;-9.39;78.53;97100.02;1667943;85;21013;-68
2022/01/19 06:49:30;;;;;;;6.13;2.50;;;;;;;-9.30;77.97;97096.02;1695265;85;21005;-67
2022/01/19 06:51:58;;;;;;;24.70;13.90;;;;;;;-9.28;78.07;97099.98;1695327;85;21044;-66
2022/01/19 06:54:24;;;;;;;42.83;19.77;;;;;;;-9.36;77.34;97104.09;1695341;85;21021;-64
2022/01/19 06:56:51;;;;;;;7.93;3.87;;;;;;;-9.46;76.96;97110.89;1695240;85;21041;-65
2022/01/19 06:59:19;;;;;;;5.73;3.13;;;;;;;-9.40;77.10;97115.21;1693731;85;21151;-65
2022/01/19 07:02:03;;;;;;;2.50;1.62;;;;;;;-9.24;77.98;97102.92;1701067;84;21080;-66
2022/01/19 07:04:49;;;;;;;99.17;46.00;;;;;;;-9.15;77.07;97099.84;1707890;84;21097;-67
2022/01/19 07:07:19;;;;;;;125.23;51.63;;;;;;;-9.26;77.03;97109.96;1705683;84;21095;-65
2022/01/19 07:09:49;;;;;;;18.53;5.73;;;;;;;-9.22;76.78;97109.41;1705785;84;21096;-66
2022/01/19 07:12:16;;;;;;;4.17;2.50;;;;;;;-9.15;77.01;97112.63;1707713;84;21540;-68
2022/01/19 07:14:43;;;;;;;23.97;12.47;;;;;;;-9.02;76.72;97107.19;1707236;84;21174;-66
2022/01/19 07:17:10;;;;;;;5.00;2.73;;;;;;;-9.00;76.66;97106.53;1707965;84;21067;-67
2022/01/19 07:19:37;;;;;;;5.87;2.47;;;;;;;-9.01;76.01;97108.60;1708096;84;21044;-65
2022/01/19 07:22:04;;;;;;;10.20;4.17;;;;;;;-9.04;75.83;97108.36;1708730;84;21063;-66
2022/01/19 07:24:32;;;;;;;3.77;2.37;;;;;;;-9.04;75.99;97101.08;1708506;84;21123;-65
2022/01/19 07:26:59;;;;;;;6.70;3.00;;;;;;;-8.90;76.63;97109.84;1708654;84;21508;-67
2022/01/19 07:29:28;;;;;;;5.07;2.87;;;;;;;-8.85;76.25;97107.27;1681540;84;21064;-66
2022/01/19 07:31:57;;;;;;;3.67;2.17;;;;;;;-8.75;76.31;97106.83;1707683;84;21023;-66
2022/01/19 07:34:25;;;;;;;8.70;3.47;;;;;;;-8.61;75.83;97095.52;1708532;84;21067;-67
2022/01/19 07:36:54;;;;;;;7.77;3.23;;;;;;;-8.55;76.11;97085.36;1707663;84;21510;-67
2022/01/19 07:39:22;;;;;;;19.37;9.10;;;;;;;-8.41;75.23;97088.13;1709519;84;21534;-66
2022/01/19 07:41:50;;;;;;;9.80;4.40;;;;;;;-8.24;75.52;97082.57;1682042;84;21562;-66
2022/01/19 07:44:39;;;;;;;7.63;3.20;;;;;;;-8.21;75.19;97078.98;1664800;84;21128;-66
2022/01/19 07:47:27;;;;;;;7.27;3.67;;;;;;;-8.13;74.46;97072.78;1709866;84;21095;-67
2022/01/19 07:50:11;;;;;;;10.90;5.20;;;;;;;-7.94;75.15;97069.92;1709774;84;21004;-68
2022/01/19 07:52:45;;;;;;;12.53;6.90;;;;;;;-7.78;74.93;97069.43;1708485;84;21127;-69
2022/01/19 07:55:23;;;;;;;13.33;6.93;;;;;;;-7.65;75.01;97063.15;1694102;84;21534;-66
2022/01/19 07:57:54;;;;;;;14.90;7.07;;;;;;;-7.59;74.28;97060.14;1709204;84;21478;-67
2022/01/19 08:00:30;;;;;;;15.93;8.90;;;;;;;-7.44;74.50;97065.11;1709678;84;21529;-65
2022/01/19 08:02:58;;;;;;;18.07;9.00;;;;;;;-7.17;74.85;97060.23;1710404;84;21080;-66
2022/01/19 08:05:27;;;;;;;16.20;8.20;;;;;;;-6.93;74.49;97043.52;1704782;84;21056;-70
2022/01/19 08:07:54;;;;;;;17.93;8.83;;;;;;;-6.77;74.29;97036.14;1709366;84;21075;-69
2022/01/19 08:10:20;;;;;;;18.47;9.77;;;;;;;-6.69;74.19;97033.71;1709771;84;21040;-67
2022/01/19 08:12:51;;;;;;;22.10;12.00;;;;;;;-6.43;73.84;97029.50;1709921;84;21071;-68
2022/01/19 08:15:18;;;;;;;20.73;10.33;;;;;;;-6.20;72.93;97023.36;1710495;84;21077;-67
2022/01/19 08:17:45;;;;;;;28.33;14.43;;;;;;;-6.04;73.59;97011.19;1708902;84;21087;-68
2022/01/19 08:20:13;;;;;;;35.13;17.23;;;;;;;-6.02;72.29;97013.44;1710622;84;21585;-67
2022/01/19 08:22:40;;;;;;;32.07;16.50;;;;;;;-5.74;73.32;97010.63;1709999;84;21004;-71
2022/01/19 08:25:09;;;;;;;31.93;15.83;;;;;;;-5.39;73.65;97003.42;1694300;84;21530;-68
2022/01/19 08:27:36;;;;;;;23.07;11.03;;;;;;;-5.14;72.84;96993.03;1709780;84;21032;-67
2022/01/19 08:30:08;;;;;;;52.60;26.13;;;;;;;-5.22;70.63;96994.75;1710722;84;21048;-70
2022/01/19 08:32:39;;;;;;;55.43;34.60;;;;;;;-5.08;71.39;96998.19;1709887;84;20989;-67
2022/01/19 08:35:23;;;;;;;32.20;15.63;;;;;;;-4.86;72.09;96990.14;1709022;84;21036;-67
2022/01/19 08:37:58;;;;;;;63.33;39.07;;;;;;;-4.59;70.36;96991.34;1710896;84;21021;-67
2022/01/19 08:40:28;;;;;;;56.30;31.83;;;;;;;-4.59;70.03;96981.96;1710729;84;21024;-68
2022/01/19 08:42:57;;;;;;;36.03;19.00;;;;;;;-4.40;70.93;96984.37;1709917;84;21071;-68
2022/01/19 08:45:23;;;;;;;37.23;18.87;;;;;;;-4.29;69.20;96983.31;1710149;84;21009;-68
2022/01/19 08:47:53;;;;;;;44.07;20.70;;;;;;;-4.13;70.11;96989.02;1710166;84;21119;-67
2022/01/19 08:50:29;;;;;;;33.60;17.57;;;;;;;-3.91;70.22;96989.87;1708373;84;21102;-67
2022/01/19 08:53:00;;;;;;;34.67;18.42;;;;;;;-3.89;68.00;96986.98;1707897;84;21083;-66
2022/01/19 08:55:31;;;;;;;35.63;19.97;;;;;;;-3.84;67.58;96976.95;1709370;84;21090;-68
2022/01/19 08:57:58;;;;;;;41.30;20.30;;;;;;;-3.59;68.43;96980.16;1709654;84;21258;-67
2022/01/19 09:00:24;;;;;;;25.03;13.53;;;;;;;-3.27;68.46;96968.22;1709701;84;21115;-67
2022/01/19 09:02:51;;;;;;;36.67;20.90;;;;;;;-3.09;66.81;96971.81;1701291;84;21044;-67
2022/01/19 09:05:18;;;;;;;35.23;16.93;;;;;;;-2.94;67.86;96965.73;1695263;85;21041;-66
2022/01/19 09:07:45;;;;;;;35.90;19.43;;;;;;;-2.76;66.29;96958.09;1695641;85;21085;-67
2022/01/19 09:10:14;;;;;;;36.00;19.57;;;;;;;-2.67;65.36;96956.91;1694411;85;21049;-67
2022/01/19 09:12:42;;;;;;;68.17;39.23;;;;;;;-2.59;66.50;96952.56;1694384;85;21077;-68
2022/01/19 09:15:11;;;;;;;34.63;18.90;;;;;;;-2.43;66.47;96942.22;1694499;85;21131;-67
2022/01/19 09:17:41;;;;;;;28.23;13.80;;;;;;;-2.19;64.21;96936.16;1694285;85;21028;-67
2022/01/19 09:20:11;;;;;;;23.80;12.03;;;;;;;-1.95;65.71;96931.34;1694584;85;21053;-69
2022/01/19 09:22:38;;;;;;;24.70;12.70;;;;;;;-1.60;62.49;96923.17;1695060;85;21081;-70
2022/01/19 09:25:09;;;;;;;32.47;14.37;;;;;;;-1.35;61.58;96925.27;1695595;85;21009;-67
2022/01/19 09:27:38;;;;;;;21.40;11.37;;;;;;;-1.22;61.19;96928.04;1694492;85;21091;-68
2022/01/19 09:30:14;;;;;;;19.20;10.50;;;;;;;-0.97;59.87;96931.39;1693965;85;21203;-68
2022/01/19 09:32:54;;;;;;;20.57;10.77;;;;;;;-0.75;60.68;96925.52;1694047;85;21148;-70
2022/01/19 09:35:23;;;;;;;17.43;10.37;;;;;;;-0.54;59.57;96925.19;1693512;85;20989;-68
2022/01/19 09:37:43;;;;;;;23.60;13.57;;;;;;;-0.23;60.53;96921.37;1693594;85;21151;-71
2022/01/19 09:40:11;;;;;;;28.57;16.93;;;;;;;-0.24;57.24;96918.31;1695575;85;21081;-68
2022/01/19 09:42:38;;;;;;;31.77;17.90;;;;;;;0.06;57.66;96908.80;1694326;85;21064;-70
2022/01/19 09:45:06;;;;;;;36.60;21.20;;;;;;;0.20;57.47;96895.98;1694721;85;21065;-67
2022/01/19 09:47:32;;;;;;;41.10;24.27;;;;;;;0.29;57.37;96899.39;1695164;85;20966;-71
2022/01/19 09:49:59;;;;;;;29.73;19.10;;;;;;;0.51;56.60;96899.87;1694382;85;21566;-70
2022/01/19 09:52:25;;;;;;;23.90;16.07;;;;;;;0.64;57.05;96891.33;1694516;85;21090;-69
2022/01/19 09:54:55;;;;;;;17.97;9.83;;;;;;;0.80;55.63;96891.95;1695366;85;20974;-68
2022/01/19 09:57:22;;;;;;;19.67;10.67;;;;;;;0.91;54.93;96885.48;1694652;85;21037;-66
2022/01/19 09:59:49;;;;;;;24.73;11.77;;;;;;;1.11;55.07;96887.95;1694999;85;21052;-68
2022/01/19 10:02:16;;;;;;;21.70;10.43;;;;;;;1.36;51.88;96880.28;1696693;84;21526;-72
2022/01/19 10:04:47;;;;;;;23.83;11.40;;;;;;;1.58;52.62;96878.03;1700509;84;21025;-67
2022/01/19 10:07:21;;;;;;;23.63;11.00;;;;;;;1.79;50.76;96862.72;1700561;84;21060;-68
2022/01/19 10:09:54;;;;;;;;;;;;;;;2.19;50.37;96863.70;1702401;84;21159;-66
2022/01/19 10:18:18;;;;;;;15.53;8.60;;;;;;;3.84;45.02;96835.75;1700469;84;21550;-67
2022/01/19 10:20:50;;;;;;;15.73;7.60;;;;;;;4.21;45.09;96832.79;1700641;84;21076;-64
2022/01/19 10:23:41;;;;;;;14.43;9.17;;;;;;;4.45;43.04;96839.95;1692804;84;21134;-65
2022/01/19 10:26:13;;;;;;;10.73;6.50;;;;;;;4.78;43.56;96823.32;1701024;84;21001;-64
2022/01/19 10:29:08;;;;;;;13.33;8.10;;;;;;;5.26;42.22;96814.81;1700767;84;21076;-63
2022/01/19 10:31:40;;;;;;;13.87;8.20;;;;;;;5.75;40.77;96816.27;1701090;84;21025;-64
2022/01/19 10:34:20;;;;;;;12.27;6.87;;;;;;;6.02;40.60;96815.53;1700683;84;21055;-64
2022/01/19 10:36:51;;;;;;;13.10;7.90;;;;;;;5.84;38.25;96808.58;1700857;84;21024;-63
2022/01/19 10:39:20;;;;;;;11.37;6.30;;;;;;;6.00;38.38;96803.25;1700901;84;21509;-63
2022/01/19 10:42:10;;;;;;;13.27;7.80;;;;;;;6.31;38.53;96807.30;1700798;84;21060;-64
2022/01/19 10:44:50;;;;;;;12.43;7.20;;;;;;;6.41;37.03;96797.85;1701004;84;21108;-64
2022/01/19 10:47:17;;;;;;;11.37;7.50;;;;;;;6.71;36.47;96796.16;1700007;84;21072;-65
2022/01/19 10:49:58;;;;;;;13.70;7.10;;;;;;;6.86;36.82;96796.83;1682136;84;21160;-65
2022/01/19 10:52:40;;;;;;;15.00;7.95;;;;;;;6.99;37.69;96787.39;1672556;84;21009;-65
2022/01/19 10:55:21;;;;;;;13.85;6.62;;;;;;;7.09;36.95;96792.79;1699219;84;21025;-64
2022/01/19 10:57:50;;;;;;;15.13;8.50;;;;;;;7.10;35.67;96781.86;1698105;84;21566;-64
2022/01/19 11:00:24;;;;;;;12.63;8.18;;;;;;;7.69;37.29;96776.94;1700700;84;21039;-64
2022/01/19 11:02:58;;;;;;;13.22;7.17;;;;;;;8.13;37.00;96774.77;1700843;84;21035;-63
2022/01/19 11:05:51;;;;;;;9.13;6.08;;;;;;;8.07;33.68;96772.53;1700645;84;21033;-64
2022/01/19 11:08:21;;;;;;;9.78;5.95;;;;;;;8.00;34.74;96761.94;1701065;84;20985;-63
2022/01/19 11:10:50;;;;;;;13.20;7.30;;;;;;;8.27;34.35;96759.14;1700891;84;21088;-63
2022/01/19 11:13:28;;;;;;;8.60;6.42;;;;;;;8.32;33.71;96757.87;1701006;84;21025;-63
2022/01/19 11:15:48;;;;;;;9.35;5.78;;;;;;;8.90;33.54;96755.72;1700043;84;21116;-63
2022/01/19 11:18:14;;;;;;;9.05;6.42;;;;;;;8.98;32.84;96747.42;1700901;84;21544;-63
2022/01/19 11:20:44;;;;;;;16.37;8.25;;;;;;;9.27;32.48;96737.06;1700989;84;21041;-63
2022/01/19 11:23:57;;;;;;;11.40;7.12;;;;;;;9.41;31.84;96737.55;1701061;84;21462;-64
2022/01/19 11:26:30;;;;;;;9.55;6.72;;;;;;;9.88;31.79;96732.89;1677242;85;21510;-64
2022/01/19 11:29:18;;;;;;;12.10;7.00;;;;;;;9.91;31.04;96728.94;1677234;85;21045;-64
2022/01/19 11:31:48;;;;;;;14.53;8.83;;;;;;;10.11;30.69;96728.53;1690783;84;21007;-64
2022/01/19 11:34:15;;;;;;;11.55;7.53;;;;;;;10.26;31.71;96730.30;1701125;84;20996;-64
2022/01/19 11:36:43;;;;;;;11.03;7.30;;;;;;;9.91;30.10;96736.84;1700752;84;21033;-63
2022/01/19 11:39:20;;;;;;;13.28;7.67;;;;;;;10.05;30.27;96734.22;1700980;84;21496;-63
2022/01/19 11:41:55;;;;;;;12.07;7.85;;;;;;;9.87;29.90;96733.75;1700653;84;21603;-63
2022/01/19 11:44:30;;;;;;;10.10;6.45;;;;;;;9.57;30.79;96727.50;1700716;84;21465;-63
2022/01/19 11:47:11;;;;;;;8.98;5.30;;;;;;;9.93;30.40;96724.55;1699801;84;21571;-63
2022/01/19 11:49:49;;;;;;;11.22;5.95;;;;;;;9.73;30.26;96727.13;1692258;84;21049;-63
2022/01/19 11:52:19;;;;;;;9.38;5.87;;;;;;;9.70;30.79;96726.69;1701032;84;21102;-63
2022/01/19 11:54:47;;;;;;;7.33;5.15;;;;;;;9.46;30.51;96724.84;1701048;84;21014;-63
2022/01/19 11:57:28;;;;;;;12.05;7.20;;;;;;;9.53;30.85;96732.34;1701009;84;21555;-64
2022/01/19 12:00:12;;;;;;;8.20;5.40;;;;;;;9.76;30.73;96723.19;1700667;84;21010;-66
2022/01/19 12:02:48;;;;;;;7.90;5.05;;;;;;;9.39;30.37;96723.48;1700721;84;21650;-64
2022/01/19 12:05:29;;;;;;;8.98;5.75;;;;;;;9.51;30.52;96719.59;1669391;86;21055;-64
2022/01/19 12:08:03;;;;;;;8.53;5.17;;;;;;;9.52;30.74;96713.02;1651686;87;21581;-63
2022/01/19 12:10:42;;;;;;;11.22;6.17;;;;;;;9.43;30.66;96713.42;1669548;85;21053;-63
2022/01/19 12:13:39;;;;;;;11.90;8.80;;;;;;;9.45;30.55;96699.80;1651740;87;21035;-63
2022/01/19 12:19:14;;;;;;;12.13;8.50;;;;;;;9.75;30.37;96693.73;1652416;87;21106;-64
2022/01/19 12:22:00;;;;;;;12.50;8.13;;;;;;;9.93;29.53;96693.79;1669275;85;21146;-63
2022/01/19 12:24:30;;;;;;;16.27;9.08;;;;;;;10.29;29.82;96680.22;1641092;87;21070;-64
2022/01/19 12:27:15;;;;;;;10.93;6.45;;;;;;;10.21;28.96;96677.98;1652599;87;21517;-63
2022/01/19 12:29:51;;;;;;;9.38;6.33;;;;;;;10.03;28.84;96694.69;1668995;86;21110;-63
2022/01/19 12:32:27;;;;;;;12.25;7.35;;;;;;;10.10;29.07;96687.64;1650575;87;21047;-64
2022/01/19 12:35:16;;;;;;;14.63;8.80;;;;;;;9.97;29.54;96686.30;1669470;86;21050;-64
2022/01/19 12:37:56;;;;;;;12.70;8.73;;;;;;;9.87;29.26;96689.80;1652870;87;21063;-64
2022/01/19 12:40:29;;;;;;;12.35;7.60;;;;;;;9.91;29.55;96694.22;1669395;86;21042;-64
2022/01/19 12:42:59;;;;;;;9.73;6.58;;;;;;;10.04;29.63;96687.20;1652525;87;21008;-64
2022/01/19 12:45:31;;;;;;;10.48;8.03;;;;;;;9.97;29.42;96685.43;1669481;86;21433;-64
2022/01/19 12:48:04;;;;;;;12.03;8.88;;;;;;;10.28;30.04;96673.61;1640614;87;21564;-64
2022/01/19 12:50:44;;;;;;;13.62;8.85;;;;;;;10.57;29.36;96663.05;1641077;87;21055;-64
2022/01/19 12:53:21;;;;;;;10.82;6.95;;;;;;;10.82;28.88;96669.16;1652492;87;21070;-63
2022/01/19 12:55:56;;;;;;;7.85;6.03;;;;;;;11.07;28.42;96675.25;1669148;86;21058;-63
2022/01/19 12:58:28;;;;;;;9.33;7.00;;;;;;;10.67;28.23;96662.14;1652436;87;21501;-63
2022/01/19 13:00:59;;;;;;;9.05;6.90;;;;;;;10.84;28.33;96668.72;1669148;86;21054;-63
2022/01/19 13:03:30;;;;;;;11.15;7.35;;;;;;;10.65;28.96;96664.34;1660626;85;21050;-63
2022/01/19 13:06:05;;;;;;;11.22;8.85;;;;;;;10.93;28.30;96658.56;1678108;85;21554;-63
2022/01/19 13:08:50;;;;;;;16.02;9.95;;;;;;;11.10;28.49;96665.98;1678113;85;21053;-64
2022/01/19 13:11:45;;;;;;;12.50;9.53;;;;;;;11.25;28.35;96654.48;1677509;85;21101;-65